createdAt,value
2019-01-11T00:00:24.198Z,12.64
2019-01-11T00:01:10.201Z,12.77
2019-01-11T00:01:49.285Z,12.78
2019-01-11T00:02:26.271Z,12.79
2019-01-11T00:03:02.810Z,12.78
2019-01-11T00:03:39.643Z,12.78
2019-01-11T00:04:16.345Z,12.80
2019-01-11T00:04:53.055Z,12.39
2019-01-11T00:05:32.816Z,12.39
2019-01-11T00:06:09.495Z,12.73
2019-01-11T00:06:46.451Z,12.71
2019-01-11T00:07:23.196Z,12.72
2019-01-11T00:07:59.621Z,12.72
2019-01-11T00:08:35.950Z,12.77
2019-01-11T00:09:13.074Z,12.71
2019-01-11T00:09:49.715Z,12.79
2019-01-11T00:10:27.054Z,12.79
2019-01-11T00:11:03.872Z,12.78
2019-01-11T00:11:40.930Z,12.80
2019-01-11T00:12:17.638Z,12.77
2019-01-11T00:12:54.753Z,12.77
2019-01-11T00:13:31.506Z,12.78
2019-01-11T00:14:08.172Z,12.86
2019-01-11T00:14:44.736Z,12.79
2019-01-11T00:15:21.847Z,12.81
2019-01-11T00:15:58.572Z,12.79
2019-01-11T00:16:35.607Z,12.82
2019-01-11T00:17:12.339Z,12.82
2019-01-11T00:17:49.420Z,12.84
2019-01-11T00:18:27.474Z,12.83
2019-01-11T00:19:07.210Z,12.91
2019-01-11T00:19:42.567Z,12.91
2019-01-11T00:20:19.431Z,12.88
2019-01-11T00:20:56.556Z,13.05
2019-01-11T00:21:33.292Z,12.68
2019-01-11T00:22:09.338Z,12.68
2019-01-11T00:22:46.164Z,12.92
2019-01-11T00:23:22.916Z,12.92
2019-01-11T00:23:59.872Z,12.88
2019-01-11T00:24:36.094Z,12.91
2019-01-11T00:25:13.209Z,12.82
2019-01-11T00:25:50.230Z,12.82
2019-01-11T00:26:26.592Z,12.88
2019-01-11T00:27:03.305Z,12.88
2019-01-11T00:27:39.898Z,12.88
2019-01-11T00:28:16.302Z,12.86
2019-01-11T00:28:53.453Z,12.87
2019-01-11T00:29:30.320Z,12.90
2019-01-11T00:30:08.596Z,12.92
2019-01-11T00:30:45.518Z,12.89
2019-01-11T00:31:22.096Z,12.89
2019-01-11T00:31:58.617Z,12.91
2019-01-11T00:32:34.931Z,12.91
2019-01-11T00:33:11.075Z,12.90
2019-01-11T00:33:47.963Z,12.98
2019-01-11T00:34:24.614Z,12.98
2019-01-11T00:35:01.007Z,12.92
2019-01-11T00:35:37.368Z,12.92
2019-01-11T00:36:13.929Z,12.88
2019-01-11T00:36:50.956Z,12.88
2019-01-11T00:37:27.974Z,12.86
2019-01-11T00:38:04.752Z,12.83
2019-01-11T00:38:41.365Z,12.78
2019-01-11T00:39:18.264Z,12.78
2019-01-11T00:39:54.667Z,12.76
2019-01-11T00:40:31.955Z,12.80
2019-01-11T00:41:09.248Z,13.08
2019-01-11T00:41:45.669Z,12.85
2019-01-11T00:42:21.880Z,12.86
2019-01-11T00:42:58.572Z,12.65
2019-01-11T00:43:34.492Z,12.65
2019-01-11T00:44:10.946Z,12.91
2019-01-11T00:44:47.148Z,12.88
2019-01-11T00:45:24.217Z,13.27
2019-01-11T00:46:01.213Z,12.75
2019-01-11T00:46:37.681Z,12.75
2019-01-11T00:47:14.438Z,12.95
2019-01-11T00:47:51.022Z,12.93
2019-01-11T00:48:27.236Z,12.93
2019-01-11T00:49:03.919Z,12.97
2019-01-11T00:49:40.596Z,12.96
2019-01-11T00:50:17.748Z,13.00
2019-01-11T00:50:55.790Z,12.97
2019-01-11T00:51:33.124Z,13.00
2019-01-11T00:52:09.536Z,12.99
2019-01-11T00:52:45.951Z,12.63
2019-01-11T00:53:22.431Z,12.63
2019-01-11T00:53:59.709Z,12.96
2019-01-11T00:54:36.411Z,12.97
2019-01-11T00:55:12.983Z,12.97
2019-01-11T00:55:49.705Z,12.91
2019-01-11T00:56:26.467Z,12.74
2019-01-11T00:57:03.323Z,13.18
2019-01-11T00:57:40.190Z,13.18
2019-01-11T00:58:16.698Z,13.03
2019-01-11T00:58:53.214Z,12.98
2019-01-11T00:59:30.179Z,13.00
2019-01-11T01:00:08.896Z,13.07
2019-01-11T01:00:46.294Z,12.80
2019-01-11T01:01:23.185Z,13.34
2019-01-11T01:02:02.446Z,13.08
2019-01-11T01:02:39.105Z,13.07
2019-01-11T01:03:15.550Z,13.09
2019-01-11T01:03:52.581Z,13.10
2019-01-11T01:04:29.553Z,13.26
2019-01-11T01:05:06.328Z,13.10
2019-01-11T01:05:43.271Z,13.02
2019-01-11T01:06:20.491Z,13.02
2019-01-11T01:06:57.297Z,12.90
2019-01-11T01:07:34.329Z,12.90
2019-01-11T01:08:11.581Z,12.60
2019-01-11T01:08:48.651Z,12.91
2019-01-11T01:09:25.090Z,12.91
2019-01-11T01:10:01.790Z,12.69
2019-01-11T01:10:38.859Z,12.69
2019-01-11T01:11:15.797Z,13.20
2019-01-11T01:11:52.452Z,13.20
2019-01-11T01:12:29.418Z,13.04
2019-01-11T01:13:06.706Z,13.04
2019-01-11T01:13:43.177Z,12.91
2019-01-11T01:14:20.243Z,13.11
2019-01-11T01:14:56.665Z,13.11
2019-01-11T01:15:33.119Z,12.96
2019-01-11T01:16:09.982Z,12.99
2019-01-11T01:16:46.955Z,12.88
2019-01-11T01:17:23.826Z,13.03
2019-01-11T01:18:00.262Z,12.77
2019-01-11T01:18:36.949Z,12.77
2019-01-11T01:19:19.868Z,13.00
2019-01-11T01:19:52.384Z,13.06
2019-01-11T01:20:29.568Z,13.02
2019-01-11T01:21:06.082Z,12.93
2019-01-11T01:21:42.933Z,12.93
2019-01-11T01:22:19.828Z,12.95
2019-01-11T01:22:57.026Z,13.06
2019-01-11T01:23:33.615Z,13.06
2019-01-11T01:24:09.987Z,12.96
2019-01-11T01:24:46.471Z,13.07
2019-01-11T01:25:23.594Z,13.00
2019-01-11T01:26:00.170Z,13.00
2019-01-11T01:26:36.871Z,13.15
2019-01-11T01:27:13.532Z,13.08
2019-01-11T01:27:50.574Z,13.33
2019-01-11T01:28:27.502Z,13.42
2019-01-11T01:29:04.676Z,13.42
2019-01-11T01:29:41.339Z,13.23
2019-01-11T01:30:19.269Z,13.36
2019-01-11T01:30:55.668Z,13.36
2019-01-11T01:31:32.921Z,13.28
2019-01-11T01:32:09.197Z,13.28
2019-01-11T01:32:45.640Z,13.47
2019-01-11T01:33:22.267Z,13.40
2019-01-11T01:33:59.346Z,13.40
2019-01-11T01:34:35.606Z,13.35
2019-01-11T01:35:12.083Z,13.35
2019-01-11T01:35:49.225Z,13.30
2019-01-11T01:36:26.417Z,13.53
2019-01-11T01:37:03.307Z,12.98
2019-01-11T01:37:39.692Z,12.98
2019-01-11T01:38:16.392Z,13.20
2019-01-11T01:38:53.052Z,13.21
2019-01-11T01:39:29.928Z,13.21
2019-01-11T01:40:07.789Z,13.17
2019-01-11T01:40:44.508Z,13.17
2019-01-11T01:41:21.337Z,13.39
2019-01-11T01:41:58.796Z,13.32
2019-01-11T01:42:35.404Z,13.36
2019-01-11T01:43:11.945Z,13.39
2019-01-11T01:43:49.274Z,13.55
2019-01-11T01:44:26.185Z,13.55
2019-01-11T01:45:03.615Z,13.40
2019-01-11T01:45:39.901Z,13.26
2019-01-11T01:46:16.597Z,13.26
2019-01-11T01:46:53.285Z,13.39
2019-01-11T01:47:30.434Z,13.41
2019-01-11T01:48:07.169Z,13.38
2019-01-11T01:48:43.370Z,13.38
2019-01-11T01:49:26.371Z,13.71
2019-01-11T01:49:58.606Z,13.72
2019-01-11T01:50:35.143Z,13.65
2019-01-11T01:51:12.183Z,13.68
2019-01-11T01:51:49.191Z,13.73
2019-01-11T01:52:25.942Z,13.82
2019-01-11T01:53:02.503Z,13.80
2019-01-11T01:53:39.552Z,13.86
2019-01-11T01:54:16.456Z,13.95
2019-01-11T01:54:52.985Z,13.86
2019-01-11T01:55:29.885Z,13.81
2019-01-11T01:56:07.132Z,13.92
2019-01-11T01:56:44.336Z,13.81
2019-01-11T01:57:21.550Z,13.87
2019-01-11T01:57:58.791Z,13.67
2019-01-11T01:58:35.675Z,13.67
2019-01-11T01:59:11.965Z,13.73
2019-01-11T01:59:48.587Z,13.73
2019-01-11T02:00:25.450Z,13.75
2019-01-11T02:01:01.869Z,13.98
2019-01-11T02:01:38.520Z,13.98
2019-01-11T02:02:15.548Z,13.81
2019-01-11T02:02:52.656Z,13.71
2019-01-11T02:03:29.236Z,13.76
2019-01-11T02:04:06.131Z,13.63
2019-01-11T02:04:42.920Z,13.63
2019-01-11T02:05:19.439Z,13.69
2019-01-11T02:05:55.851Z,13.69
2019-01-11T02:06:32.402Z,13.88
2019-01-11T02:07:08.602Z,13.88
2019-01-11T02:07:45.943Z,13.85
2019-01-11T02:08:23.179Z,13.88
2019-01-11T02:09:00.181Z,14.05
2019-01-11T02:09:37.254Z,14.05
2019-01-11T02:10:15.331Z,13.64
2019-01-11T02:10:52.635Z,13.55
2019-01-11T02:11:29.491Z,13.51
2019-01-11T02:12:06.614Z,13.51
2019-01-11T02:12:43.483Z,13.54
2019-01-11T02:13:20.431Z,13.54
2019-01-11T02:13:57.747Z,13.99
2019-01-11T02:14:34.801Z,13.99
2019-01-11T02:15:13.009Z,13.84
2019-01-11T02:15:50.242Z,13.86
2019-01-11T02:16:26.906Z,13.54
2019-01-11T02:17:04.081Z,13.42
2019-01-11T02:17:40.910Z,13.66
2019-01-11T02:18:19.739Z,13.51
2019-01-11T02:18:56.736Z,13.86
2019-01-11T02:19:33.427Z,13.86
2019-01-11T02:20:14.858Z,14.06
2019-01-11T02:20:51.788Z,14.06
2019-01-11T02:21:28.739Z,13.70
2019-01-11T02:22:04.930Z,13.88
2019-01-11T02:22:41.449Z,13.91
2019-01-11T02:23:17.713Z,13.93
2019-01-11T02:23:53.861Z,13.99
2019-01-11T02:24:31.013Z,14.04
2019-01-11T02:25:07.592Z,14.04
2019-01-11T02:25:46.307Z,13.96
2019-01-11T02:26:22.176Z,13.96
2019-01-11T02:26:58.633Z,13.99
2019-01-11T02:27:35.514Z,13.99
2019-01-11T02:28:12.427Z,13.99
2019-01-11T02:28:49.569Z,14.06
2019-01-11T02:29:26.688Z,14.16
2019-01-11T02:30:03.572Z,13.82
2019-01-11T02:30:40.176Z,13.82
2019-01-11T02:31:17.039Z,13.90
2019-01-11T02:31:53.326Z,13.93
2019-01-11T02:32:30.441Z,14.05
2019-01-11T02:33:07.025Z,14.05
2019-01-11T02:33:43.621Z,13.89
2019-01-11T02:34:21.141Z,13.71
2019-01-11T02:34:57.704Z,13.89
2019-01-11T02:35:34.735Z,13.93
2019-01-11T02:36:10.953Z,13.89
2019-01-11T02:36:47.274Z,13.77
2019-01-11T02:37:23.655Z,13.91
2019-01-11T02:38:00.350Z,13.91
2019-01-11T02:38:36.517Z,13.82
2019-01-11T02:39:13.318Z,13.82
2019-01-11T02:39:49.921Z,13.86
2019-01-11T02:40:26.418Z,13.88
2019-01-11T02:41:03.469Z,13.85
2019-01-11T02:41:39.657Z,13.68
2019-01-11T02:42:16.687Z,13.68
2019-01-11T02:42:52.935Z,13.92
2019-01-11T02:43:29.612Z,13.71
2019-01-11T02:44:05.859Z,13.92
2019-01-11T02:44:42.705Z,13.92
2019-01-11T02:45:22.256Z,13.76
2019-01-11T02:45:59.354Z,13.77
2019-01-11T02:46:35.626Z,13.77
2019-01-11T02:47:11.952Z,13.65
2019-01-11T02:47:48.592Z,13.97
2019-01-11T02:48:25.896Z,13.97
2019-01-11T02:49:03.177Z,13.92
2019-01-11T02:49:40.447Z,13.87
2019-01-11T02:50:17.570Z,14.09
2019-01-11T02:50:54.430Z,14.09
2019-01-11T02:51:31.618Z,13.70
2019-01-11T02:52:08.249Z,13.89
2019-01-11T02:52:45.613Z,13.89
2019-01-11T02:53:22.568Z,13.79
2019-01-11T02:53:59.275Z,13.82
2019-01-11T02:54:35.538Z,13.95
2019-01-11T02:55:11.754Z,13.98
2019-01-11T02:55:48.129Z,13.98
2019-01-11T02:56:24.910Z,14.20
2019-01-11T02:57:01.908Z,14.20
2019-01-11T02:57:38.497Z,13.95
2019-01-11T02:58:15.069Z,14.02
2019-01-11T02:58:51.885Z,13.86
2019-01-11T02:59:28.404Z,13.78
2019-01-11T03:00:05.187Z,13.99
2019-01-11T03:00:42.068Z,13.99
2019-01-11T03:01:19.156Z,13.95
2019-01-11T03:01:55.747Z,13.95
2019-01-11T03:02:32.439Z,14.11
2019-01-11T03:03:09.600Z,14.06
2019-01-11T03:03:46.757Z,14.06
2019-01-11T03:04:23.665Z,14.01
2019-01-11T03:04:59.927Z,13.72
2019-01-11T03:05:36.393Z,13.98
2019-01-11T03:06:12.809Z,13.98
2019-01-11T03:06:49.510Z,13.87
2019-01-11T03:07:26.541Z,13.87
2019-01-11T03:08:03.308Z,13.90
2019-01-11T03:08:40.193Z,13.91
2019-01-11T03:09:17.153Z,13.75
2019-01-11T03:09:53.971Z,13.74
2019-01-11T03:10:30.812Z,13.92
2019-01-11T03:11:08.153Z,13.92
2019-01-11T03:11:44.771Z,13.89
2019-01-11T03:12:21.648Z,13.73
2019-01-11T03:12:58.096Z,13.73
2019-01-11T03:13:34.814Z,13.95
2019-01-11T03:14:11.572Z,13.95
2019-01-11T03:14:48.279Z,13.85
2019-01-11T03:15:25.196Z,13.88
2019-01-11T03:16:01.985Z,13.92
2019-01-11T03:16:39.124Z,13.93
2019-01-11T03:17:16.174Z,13.89
2019-01-11T03:17:53.043Z,13.89
2019-01-11T03:18:29.859Z,13.94
2019-01-11T03:19:06.690Z,13.95
2019-01-11T03:19:47.731Z,13.99
2019-01-11T03:20:21.730Z,13.95
2019-01-11T03:20:58.707Z,13.93
2019-01-11T03:21:36.824Z,13.92
2019-01-11T03:22:13.127Z,13.91
2019-01-11T03:22:49.839Z,13.90
2019-01-11T03:23:26.422Z,13.86
2019-01-11T03:24:02.876Z,13.86
2019-01-11T03:24:39.439Z,13.86
2019-01-11T03:25:16.486Z,13.86
2019-01-11T03:25:53.420Z,13.86
2019-01-11T03:26:30.171Z,13.83
2019-01-11T03:27:07.244Z,13.77
2019-01-11T03:27:44.096Z,13.75
2019-01-11T03:28:21.379Z,13.78
2019-01-11T03:28:57.545Z,13.78
2019-01-11T03:29:34.750Z,13.80
2019-01-11T03:30:16.719Z,13.80
2019-01-11T03:30:53.436Z,13.61
2019-01-11T03:31:35.826Z,13.61
2019-01-11T03:32:12.899Z,13.63
2019-01-11T03:32:49.661Z,13.73
2019-01-11T03:33:26.720Z,13.59
2019-01-11T03:34:03.630Z,13.53
2019-01-11T03:34:54.607Z,13.67
2019-01-11T03:35:31.744Z,13.67
2019-01-11T03:36:08.350Z,13.70
2019-01-11T03:36:44.761Z,13.48
2019-01-11T03:37:21.358Z,13.48
2019-01-11T03:37:58.217Z,13.71
2019-01-11T03:38:35.292Z,13.75
2019-01-11T03:39:12.655Z,13.75
2019-01-11T03:39:49.296Z,13.67
2019-01-11T03:40:27.316Z,13.79
2019-01-11T03:41:04.476Z,13.88
2019-01-11T03:41:55.349Z,13.85
2019-01-11T03:42:31.652Z,13.85
2019-01-11T03:43:08.464Z,13.59
2019-01-11T03:43:45.245Z,13.59
2019-01-11T03:44:22.563Z,13.72
2019-01-11T03:44:59.237Z,13.74
2019-01-11T03:45:35.956Z,13.57
2019-01-11T03:46:12.640Z,13.59
2019-01-11T03:46:49.742Z,13.59
2019-01-11T03:47:26.204Z,13.51
2019-01-11T03:48:03.002Z,13.51
2019-01-11T03:48:39.832Z,13.68
2019-01-11T03:49:16.753Z,13.68
2019-01-11T03:49:55.000Z,13.70
2019-01-11T03:50:31.319Z,13.87
2019-01-11T03:51:07.948Z,13.87
2019-01-11T03:51:44.486Z,13.42
2019-01-11T03:52:21.922Z,13.42
2019-01-11T03:52:58.785Z,13.58
2019-01-11T03:53:35.712Z,13.64
2019-01-11T03:54:12.316Z,13.67
2019-01-11T03:54:49.286Z,13.59
2019-01-11T03:55:25.484Z,13.59
2019-01-11T03:56:04.257Z,13.57
2019-01-11T03:56:41.429Z,13.57
2019-01-11T03:57:18.164Z,13.79
2019-01-11T03:57:54.449Z,13.79
2019-01-11T03:58:31.172Z,13.71
2019-01-11T03:59:08.521Z,13.60
2019-01-11T03:59:45.152Z,13.49
2019-01-11T04:00:24.509Z,13.53
2019-01-11T04:01:01.860Z,13.33
2019-01-11T04:01:38.494Z,13.33
2019-01-11T04:02:14.678Z,13.54
2019-01-11T04:02:51.007Z,13.65
2019-01-11T04:03:27.688Z,13.56
2019-01-11T04:04:04.480Z,13.28
2019-01-11T04:04:41.492Z,13.66
2019-01-11T04:05:18.144Z,13.29
2019-01-11T04:05:54.538Z,13.39
2019-01-11T04:06:31.216Z,13.39
2019-01-11T04:07:07.351Z,13.37
2019-01-11T04:07:43.439Z,13.04
2019-01-11T04:08:20.285Z,13.04
2019-01-11T04:08:56.735Z,13.39
2019-01-11T04:09:34.081Z,13.39
2019-01-11T04:10:15.425Z,13.29
2019-01-11T04:10:52.215Z,13.32
2019-01-11T04:11:29.714Z,13.33
2019-01-11T04:12:06.270Z,13.44
2019-01-11T04:12:42.928Z,13.28
2019-01-11T04:13:19.147Z,13.28
2019-01-11T04:13:56.280Z,13.19
2019-01-11T04:14:32.924Z,13.56
2019-01-11T04:15:10.748Z,13.56
2019-01-11T04:15:47.136Z,13.44
2019-01-11T04:16:23.163Z,13.44
2019-01-11T04:16:59.490Z,13.33
2019-01-11T04:17:36.499Z,13.51
2019-01-11T04:18:30.185Z,13.64
2019-01-11T04:19:11.868Z,13.66
2019-01-11T04:19:48.820Z,13.66
2019-01-11T04:20:25.423Z,13.72
2019-01-11T04:21:02.037Z,13.76
2019-01-11T04:21:38.820Z,13.73
2019-01-11T04:22:29.587Z,13.73
2019-01-11T04:23:06.091Z,13.71
2019-01-11T04:23:42.793Z,13.70
2019-01-11T04:24:20.987Z,13.71
2019-01-11T04:25:05.950Z,13.70
2019-01-11T04:25:45.461Z,13.73
2019-01-11T04:26:21.947Z,13.70
2019-01-11T04:26:59.047Z,13.67
2019-01-11T04:27:35.747Z,13.70
2019-01-11T04:28:12.835Z,13.67
2019-01-11T04:28:49.358Z,13.65
2019-01-11T04:29:26.796Z,13.65
2019-01-11T04:30:03.405Z,13.64
2019-01-11T04:30:39.770Z,13.42
2019-01-11T04:31:16.430Z,13.58
2019-01-11T04:31:53.353Z,13.51
2019-01-11T04:32:29.913Z,13.51
2019-01-11T04:33:06.939Z,13.64
2019-01-11T04:33:44.124Z,13.64
2019-01-11T04:34:20.557Z,13.67
2019-01-11T04:34:57.387Z,13.84
2019-01-11T04:35:34.400Z,13.84
2019-01-11T04:36:11.590Z,13.81
2019-01-11T04:36:47.980Z,13.59
2019-01-11T04:37:24.592Z,13.55
2019-01-11T04:38:01.345Z,13.58
2019-01-11T04:38:37.504Z,13.42
2019-01-11T04:39:14.373Z,13.67
2019-01-11T04:39:51.516Z,13.67
2019-01-11T04:40:34.167Z,13.70
2019-01-11T04:41:06.986Z,13.70
2019-01-11T04:41:43.791Z,13.75
2019-01-11T04:42:20.791Z,13.57
2019-01-11T04:42:57.711Z,13.54
2019-01-11T04:43:34.346Z,13.57
2019-01-11T04:44:10.838Z,13.56
2019-01-11T04:44:47.457Z,13.42
2019-01-11T04:45:24.121Z,13.41
2019-01-11T04:46:00.743Z,13.41
2019-01-11T04:46:37.651Z,13.39
2019-01-11T04:47:15.512Z,13.39
2019-01-11T04:47:52.660Z,13.42
2019-01-11T04:48:29.632Z,13.24
2019-01-11T04:49:06.736Z,13.24
2019-01-11T04:49:44.149Z,13.19
2019-01-11T04:50:21.479Z,13.19
2019-01-11T04:50:58.435Z,13.28
2019-01-11T04:51:35.604Z,13.28
2019-01-11T04:52:11.850Z,13.09
2019-01-11T04:52:48.353Z,13.36
2019-01-11T04:53:25.064Z,13.36
2019-01-11T04:54:01.780Z,13.31
2019-01-11T04:54:38.624Z,13.41
2019-01-11T04:55:15.019Z,13.19
2019-01-11T04:55:52.030Z,13.55
2019-01-11T04:56:28.930Z,13.54
2019-01-11T04:57:05.406Z,13.54
2019-01-11T04:57:41.483Z,13.30
2019-01-11T04:58:18.813Z,13.30
2019-01-11T04:58:56.111Z,13.52
2019-01-11T04:59:33.120Z,13.52
2019-01-11T05:00:13.265Z,13.33
2019-01-11T05:00:50.074Z,13.38
2019-01-11T05:01:27.018Z,13.55
2019-01-11T05:02:04.296Z,13.31
2019-01-11T05:02:41.181Z,13.60
2019-01-11T05:03:18.095Z,13.57
2019-01-11T05:03:54.287Z,13.57
2019-01-11T05:04:30.896Z,13.40
2019-01-11T05:05:08.265Z,13.52
2019-01-11T05:05:44.730Z,13.52
2019-01-11T05:06:21.444Z,13.54
2019-01-11T05:06:58.378Z,13.36
2019-01-11T05:07:34.904Z,13.36
2019-01-11T05:08:12.072Z,13.46
2019-01-11T05:08:49.016Z,13.45
2019-01-11T05:09:26.022Z,13.58
2019-01-11T05:10:02.264Z,13.64
2019-01-11T05:10:39.166Z,13.61
2019-01-11T05:11:15.998Z,13.57
2019-01-11T05:11:52.288Z,13.52
2019-01-11T05:12:28.775Z,13.49
2019-01-11T05:13:24.385Z,13.44
2019-01-11T05:14:00.859Z,13.29
2019-01-11T05:14:37.828Z,13.29
2019-01-11T05:15:14.479Z,13.43
2019-01-11T05:15:51.258Z,13.37
2019-01-11T05:16:28.052Z,13.46
2019-01-11T05:17:04.371Z,13.46
2019-01-11T05:17:41.443Z,13.66
2019-01-11T05:18:17.707Z,13.66
2019-01-11T05:18:54.835Z,13.52
2019-01-11T05:19:31.378Z,13.38
2019-01-11T05:20:16.571Z,13.38
2019-01-11T05:20:48.942Z,13.50
2019-01-11T05:21:26.249Z,13.36
2019-01-11T05:22:02.967Z,13.36
2019-01-11T05:22:39.717Z,13.52
2019-01-11T05:23:16.144Z,13.52
2019-01-11T05:23:52.963Z,13.46
2019-01-11T05:24:30.098Z,13.33
2019-01-11T05:25:07.849Z,13.33
2019-01-11T05:25:44.176Z,13.45
2019-01-11T05:26:21.335Z,13.46
2019-01-11T05:26:57.931Z,13.44
2019-01-11T05:27:35.046Z,13.51
2019-01-11T05:28:11.826Z,13.55
2019-01-11T05:28:48.546Z,13.55
2019-01-11T05:29:25.578Z,13.59
2019-01-11T05:30:01.777Z,13.53
2019-01-11T05:30:39.009Z,13.53
2019-01-11T05:31:16.025Z,13.42
2019-01-11T05:31:52.517Z,13.42
2019-01-11T05:32:28.997Z,13.56
2019-01-11T05:33:06.039Z,13.53
2019-01-11T05:33:42.721Z,13.57
2019-01-11T05:34:19.664Z,13.57
2019-01-11T05:34:56.132Z,13.53
2019-01-11T05:35:32.551Z,13.55
2019-01-11T05:36:09.408Z,13.61
2019-01-11T05:36:46.562Z,13.85
2019-01-11T05:37:23.604Z,13.75
2019-01-11T05:37:59.783Z,13.75
2019-01-11T05:38:36.683Z,13.56
2019-01-11T05:39:12.943Z,13.62
2019-01-11T05:39:49.561Z,13.59
2019-01-11T05:40:25.935Z,13.59
2019-01-11T05:41:03.197Z,13.53
2019-01-11T05:41:40.019Z,13.61
2019-01-11T05:42:16.444Z,13.61
2019-01-11T05:42:53.127Z,13.61
2019-01-11T05:43:30.147Z,13.50
2019-01-11T05:44:06.806Z,13.50
2019-01-11T05:44:43.380Z,13.62
2019-01-11T05:45:19.659Z,13.56
2019-01-11T05:45:56.479Z,13.62
2019-01-11T05:46:33.728Z,13.62
2019-01-11T05:47:10.150Z,13.52
2019-01-11T05:47:47.339Z,13.53
2019-01-11T05:48:24.331Z,13.53
2019-01-11T05:49:00.728Z,13.50
2019-01-11T05:49:37.235Z,13.29
2019-01-11T05:50:16.331Z,13.29
2019-01-11T05:50:53.068Z,13.40
2019-01-11T05:51:30.011Z,13.45
2019-01-11T05:52:06.865Z,13.42
2019-01-11T05:52:43.889Z,13.42
2019-01-11T05:53:20.653Z,13.42
2019-01-11T05:53:57.774Z,13.38
2019-01-11T05:54:34.133Z,13.38
2019-01-11T05:55:12.408Z,13.47
2019-01-11T05:55:50.579Z,13.48
2019-01-11T05:56:27.727Z,13.48
2019-01-11T05:57:04.787Z,13.52
2019-01-11T05:57:55.392Z,13.40
2019-01-11T05:58:33.978Z,13.40
2019-01-11T05:59:12.038Z,13.58
2019-01-11T05:59:48.711Z,13.58
2019-01-11T06:00:25.737Z,13.73
2019-01-11T06:01:03.108Z,13.73
2019-01-11T06:01:40.124Z,13.83
2019-01-11T06:02:16.998Z,13.84
2019-01-11T06:02:53.793Z,13.84
2019-01-11T06:03:30.585Z,13.77
2019-01-11T06:04:24.405Z,13.72
2019-01-11T06:05:08.142Z,13.66
2019-01-11T06:05:44.933Z,13.67
2019-01-11T06:06:22.371Z,13.78
2019-01-11T06:07:16.437Z,13.80
2019-01-11T06:07:56.380Z,13.84
2019-01-11T06:08:34.006Z,13.85
2019-01-11T06:09:11.111Z,13.88
2019-01-11T06:09:48.273Z,14.03
2019-01-11T06:10:24.851Z,14.03
2019-01-11T06:11:01.989Z,14.20
2019-01-11T06:11:38.832Z,14.22
2019-01-11T06:12:15.179Z,13.98
2019-01-11T06:12:51.427Z,13.98
2019-01-11T06:13:28.504Z,14.10
2019-01-11T06:14:05.249Z,14.08
2019-01-11T06:14:41.926Z,14.05
2019-01-11T06:15:18.831Z,14.01
2019-01-11T06:15:56.085Z,14.01
2019-01-11T06:16:32.682Z,13.93
2019-01-11T06:17:09.718Z,13.93
2019-01-11T06:17:46.256Z,13.82
2019-01-11T06:18:23.463Z,13.79
2019-01-11T06:19:00.279Z,13.77
2019-01-11T06:19:36.880Z,13.82
2019-01-11T06:20:16.767Z,13.71
2019-01-11T06:20:53.525Z,13.71
2019-01-11T06:21:29.924Z,13.74
2019-01-11T06:22:07.067Z,13.76
2019-01-11T06:22:44.021Z,13.68
2019-01-11T06:23:21.252Z,13.71
2019-01-11T06:23:58.071Z,13.70
2019-01-11T06:24:34.390Z,13.71
2019-01-11T06:25:11.040Z,13.71
2019-01-11T06:25:49.209Z,13.73
2019-01-11T06:26:26.023Z,13.72
2019-01-11T06:27:02.146Z,13.78
2019-01-11T06:27:39.109Z,13.74
2019-01-11T06:28:16.369Z,13.77
2019-01-11T06:28:55.197Z,13.76
2019-01-11T06:29:31.505Z,13.81
2019-01-11T06:30:10.018Z,13.92
2019-01-11T06:30:47.008Z,13.92
2019-01-11T06:31:23.448Z,13.82
2019-01-11T06:32:00.263Z,13.79
2019-01-11T06:32:37.036Z,13.80
2019-01-11T06:33:13.609Z,13.77
2019-01-11T06:33:50.905Z,13.77
2019-01-11T06:34:27.177Z,13.78
2019-01-11T06:35:03.371Z,13.82
2019-01-11T06:35:40.280Z,13.74
2019-01-11T06:36:16.865Z,13.70
2019-01-11T06:36:53.587Z,13.62
2019-01-11T06:37:30.979Z,13.62
2019-01-11T06:38:07.519Z,13.72
2019-01-11T06:38:44.318Z,13.53
2019-01-11T06:39:21.316Z,13.53
2019-01-11T06:39:57.619Z,13.67
2019-01-11T06:40:34.489Z,13.74
2019-01-11T06:41:11.457Z,13.75
2019-01-11T06:41:53.921Z,13.94
2019-01-11T06:42:30.375Z,13.94
2019-01-11T06:43:07.178Z,13.78
2019-01-11T06:43:45.459Z,13.79
2019-01-11T06:44:22.144Z,13.79
2019-01-11T06:45:00.004Z,13.62
2019-01-11T06:45:36.848Z,13.62
2019-01-11T06:46:13.606Z,13.73
2019-01-11T06:46:50.607Z,13.66
2019-01-11T06:47:27.764Z,13.71
2019-01-11T06:48:05.995Z,13.77
2019-01-11T06:48:43.655Z,13.80
2019-01-11T06:49:20.126Z,13.78
2019-01-11T06:49:57.138Z,13.84
2019-01-11T06:50:36.552Z,13.74
2019-01-11T06:51:12.853Z,13.70
2019-01-11T06:51:49.537Z,13.66
2019-01-11T06:52:26.675Z,13.68
2019-01-11T06:53:03.338Z,13.71
2019-01-11T06:53:40.153Z,13.79
2019-01-11T06:54:17.312Z,13.79
2019-01-11T06:54:53.777Z,13.69
2019-01-11T06:55:30.580Z,13.69
2019-01-11T06:56:07.323Z,13.74
2019-01-11T06:56:43.901Z,13.75
2019-01-11T06:57:21.027Z,13.82
2019-01-11T06:57:57.583Z,13.76
2019-01-11T06:58:34.911Z,13.76
2019-01-11T06:59:12.235Z,13.75
2019-01-11T06:59:49.161Z,13.73
2019-01-11T07:00:25.767Z,13.75
2019-01-11T07:01:02.632Z,13.71
2019-01-11T07:01:39.699Z,13.70
2019-01-11T07:02:16.254Z,13.64
2019-01-11T07:02:53.491Z,13.63
2019-01-11T07:03:30.295Z,13.67
2019-01-11T07:04:06.641Z,13.73
2019-01-11T07:04:43.087Z,13.73
2019-01-11T07:05:19.592Z,13.73
2019-01-11T07:05:56.663Z,13.68
2019-01-11T07:06:33.723Z,13.67
2019-01-11T07:07:11.140Z,13.67
2019-01-11T07:07:47.405Z,13.67
2019-01-11T07:08:24.415Z,13.66
2019-01-11T07:09:01.315Z,13.70
2019-01-11T07:09:37.656Z,13.73
2019-01-11T07:10:17.533Z,13.69
2019-01-11T07:10:54.113Z,13.68
2019-01-11T07:11:30.900Z,13.71
2019-01-11T07:12:07.707Z,13.67
2019-01-11T07:12:43.915Z,13.67
2019-01-11T07:13:20.748Z,13.71
2019-01-11T07:13:57.280Z,13.75
2019-01-11T07:14:34.052Z,13.74
2019-01-11T07:15:11.208Z,13.75
2019-01-11T07:15:47.898Z,13.71
2019-01-11T07:16:24.603Z,13.71
2019-01-11T07:17:01.155Z,13.75
2019-01-11T07:17:37.571Z,13.71
2019-01-11T07:18:14.829Z,13.67
2019-01-11T07:18:51.722Z,13.65
2019-01-11T07:19:28.280Z,13.72
2019-01-11T07:20:05.713Z,13.77
2019-01-11T07:20:44.529Z,13.78
2019-01-11T07:21:21.873Z,13.74
2019-01-11T07:21:58.972Z,13.74
2019-01-11T07:22:35.775Z,13.76
2019-01-11T07:23:12.584Z,13.75
2019-01-11T07:23:49.388Z,13.75
2019-01-11T07:24:26.164Z,13.76
2019-01-11T07:25:03.761Z,13.71
2019-01-11T07:25:40.690Z,13.69
2019-01-11T07:26:17.316Z,13.67
2019-01-11T07:26:54.239Z,13.64
2019-01-11T07:27:32.490Z,13.68
2019-01-11T07:28:13.609Z,13.69
2019-01-11T07:28:47.388Z,13.75
2019-01-11T07:29:24.499Z,13.87
2019-01-11T07:30:01.524Z,13.90
2019-01-11T07:30:55.477Z,13.96
2019-01-11T07:31:34.948Z,13.97
2019-01-11T07:32:46.770Z,14.05
2019-01-11T07:33:24.672Z,14.09
2019-01-11T07:34:01.454Z,14.14
2019-01-11T07:34:38.108Z,14.10
2019-01-11T07:35:15.146Z,14.13
2019-01-11T07:35:55.402Z,14.15
2019-01-11T07:36:35.771Z,14.30
2019-01-11T07:37:12.642Z,14.30
2019-01-11T07:37:48.946Z,14.18
2019-01-11T07:38:25.592Z,14.17
2019-01-11T07:39:03.220Z,14.19
2019-01-11T07:39:40.501Z,14.17
2019-01-11T07:40:17.592Z,14.18
2019-01-11T07:40:54.046Z,14.17
2019-01-11T07:41:30.828Z,14.21
2019-01-11T07:42:08.235Z,14.23
2019-01-11T07:42:44.561Z,14.19
2019-01-11T07:43:21.476Z,14.13
2019-01-11T07:43:57.831Z,14.18
2019-01-11T07:44:34.278Z,14.12
2019-01-11T07:45:12.596Z,14.22
2019-01-11T07:45:49.101Z,14.22
2019-01-11T07:46:26.445Z,14.24
2019-01-11T07:47:03.055Z,14.23
2019-01-11T07:47:39.874Z,14.18
2019-01-11T07:48:16.368Z,14.21
2019-01-11T07:48:53.554Z,14.17
2019-01-11T07:49:30.630Z,14.19
2019-01-11T07:50:07.403Z,14.17
2019-01-11T07:50:49.282Z,14.20
2019-01-11T07:51:22.615Z,14.23
2019-01-11T07:51:59.359Z,14.24
2019-01-11T07:52:35.626Z,14.23
2019-01-11T07:53:12.437Z,14.21
2019-01-11T07:53:49.819Z,14.19
2019-01-11T07:54:26.980Z,14.16
2019-01-11T07:55:03.921Z,14.14
2019-01-11T07:55:40.356Z,14.26
2019-01-11T07:56:17.552Z,14.25
2019-01-11T07:56:55.213Z,14.26
2019-01-11T07:57:32.923Z,14.27
2019-01-11T07:58:09.611Z,14.21
2019-01-11T07:58:46.176Z,14.29
2019-01-11T07:59:22.890Z,14.29